Time;durP1;ratioP1;P1;durP2;ratioP2;P2;SDS_P1;SDS_P2;PMS_P1;PMS_P2;Temp;Humidity;BMP_temperature;BMP_pressure;BME280_temperature;BME280_humidity;BME280_pressure;Samples;Min_cycle;Max_cycle;Signal;HPM_P1;HPM_P2
2021/12/24 00:01:22;;;;;;;5.07;3.20;;;9.90;63.00;;;;;;7378858;19;20138;-55
2021/12/24 00:03:57;;;;;;;5.57;2.80;;;10.00;61.70;;;;;;7380876;19;20130;-56
2021/12/24 00:06:26;;;;;;;6.18;3.30;;;9.90;63.00;;;;;;7377344;19;20135;-55
2021/12/24 00:08:56;;;;;;;6.72;3.03;;;10.00;61.60;;;;;;7370170;19;20533;-55
2021/12/24 00:11:26;;;;;;;4.05;2.90;;;10.00;61.60;;;;;;7357925;19;20238;-55
2021/12/24 00:13:55;;;;;;;5.00;2.78;;;10.00;61.60;;;;;;7371414;19;20138;-55
2021/12/24 00:16:31;;;;;;;3.47;2.58;;;10.00;61.50;;;;;;7372369;19;20146;-55
2021/12/24 00:19:15;;;;;;;6.68;3.22;;;9.90;62.50;;;;;;7376373;19;20199;-55
2021/12/24 00:35:29;;;;;;;4.70;2.95;;;9.90;62.60;;;;;;7378012;19;20135;-55
2021/12/24 00:38:03;;;;;;;4.70;2.63;;;10.00;61.40;;;;;;7381608;19;20127;-55
2021/12/24 00:40:34;;;;;;;3.83;2.58;;;10.00;61.30;;;;;;7374013;19;20135;-55
2021/12/24 00:43:03;;;;;;;3.20;2.53;;;10.00;61.00;;;;;;7381084;19;20124;-56
2021/12/24 00:45:36;;;;;;;3.58;2.33;;;10.00;61.00;;;;;;7379350;19;21164;-55
2021/12/24 00:48:09;;;;;;;4.07;2.45;;;10.00;61.10;;;;;;7380035;19;20127;-55
2021/12/24 00:50:56;;;;;;;3.97;2.40;;;10.00;61.20;;;;;;7373906;19;20131;-56
2021/12/24 00:56:11;;;;;;;4.70;2.83;;;10.00;61.40;;;;;;7374273;19;20511;-56
2021/12/24 00:58:42;;;;;;;3.55;2.63;;;10.00;61.40;;;;;;7377958;19;20132;-55
2021/12/24 01:01:14;;;;;;;2.92;2.13;;;10.00;61.40;;;;;;7377320;19;21032;-55
2021/12/24 01:03:44;;;;;;;2.75;1.77;;;10.00;61.30;;;;;;7376683;19;20238;-55
2021/12/24 01:06:17;;;;;;;3.38;2.33;;;10.00;61.40;;;;;;7377299;19;20589;-56
2021/12/24 01:08:46;;;;;;;3.13;2.50;;;10.00;61.20;;;;;;7374411;19;20147;-55
2021/12/24 01:11:16;;;;;;;3.35;2.50;;;10.00;61.20;;;;;;7368828;19;20187;-55
2021/12/24 01:13:46;;;;;;;2.45;2.22;;;10.00;61.20;;;;;;7377569;19;20123;-55
2021/12/24 01:16:23;;;;;;;4.00;3.03;;;10.10;61.20;;;;;;7378113;19;20139;-56
2021/12/24 01:19:01;;;;;;;4.18;2.60;;;10.10;61.00;;;;;;7373881;19;20124;-55
2021/12/24 01:21:54;;;;;;;2.67;2.22;;;10.10;61.20;;;;;;7382741;19;20131;-56
2021/12/24 01:24:31;;;;;;;4.65;2.95;;;10.10;61.20;;;;;;7377326;19;20155;-55
2021/12/24 01:27:10;;;;;;;4.43;3.45;;;10.00;61.30;;;;;;7376518;19;20191;-55
2021/12/24 01:29:52;;;;;;;4.05;2.53;;;10.00;61.40;;;;;;7373877;19;20127;-55
2021/12/24 01:37:58;;;;;;;4.18;2.70;;;10.00;61.60;;;;;;7374421;19;20127;-55
2021/12/24 01:40:40;;;;;;;3.20;2.17;;;10.00;61.60;;;;;;7372348;19;20124;-55
2021/12/24 01:43:08;;;;;;;8.60;3.17;;;10.00;61.60;;;;;;7372856;19;20123;-55
2021/12/24 01:45:39;;;;;;;2.70;2.20;;;10.00;61.70;;;;;;7377399;19;20148;-55
2021/12/24 01:48:12;;;;;;;4.93;1.90;;;10.00;61.60;;;;;;7380686;19;20135;-55
2021/12/24 01:50:46;;;;;;;3.20;2.85;;;10.10;61.60;;;;;;7363424;19;20837;-56
2021/12/24 01:53:20;;;;;;;3.85;2.58;;;10.10;61.40;;;;;;7373318;19;20126;-55
2021/12/24 01:55:55;;;;;;;4.90;2.10;;;10.10;61.50;;;;;;7371823;19;20124;-55
2021/12/24 01:58:29;;;;;;;3.70;2.22;;;10.00;61.70;;;;;;7375832;19;20123;-55
2021/12/24 02:01:01;;;;;;;2.80;1.75;;;9.90;63.00;;;;;;7366292;19;23646;-55
2021/12/24 02:03:31;;;;;;;3.00;2.20;;;9.90;63.20;;;;;;7377497;19;20198;-56
2021/12/24 02:06:01;;;;;;;5.20;2.50;;;10.00;61.70;;;;;;7376719;19;20120;-55
2021/12/24 02:08:33;;;;;;;2.83;2.15;;;10.00;61.50;;;;;;7368911;19;20132;-55
2021/12/24 02:11:03;;;;;;;3.05;2.20;;;10.00;61.20;;;;;;7368900;19;20182;-55
2021/12/24 02:13:33;;;;;;;4.28;2.28;;;10.10;61.20;;;;;;7375663;19;20135;-55
2021/12/24 02:16:24;;;;;;;4.82;2.78;;;10.20;61.00;;;;;;7373778;19;20123;-56
2021/12/24 02:29:53;;;;;;;2.35;1.58;;;10.30;60.50;;;;;;7375800;19;20131;-54
2021/12/24 02:32:23;;;;;;;3.88;2.20;;;10.30;60.50;;;;;;7375664;19;20132;-54
2021/12/24 02:34:56;;;;;;;2.88;1.90;;;10.40;60.40;;;;;;7374285;19;20493;-54
2021/12/24 02:37:28;;;;;;;2.80;2.50;;;10.30;60.20;;;;;;7369251;19;20128;-54
2021/12/24 02:39:57;;;;;;;2.80;2.47;;;10.30;60.20;;;;;;7381098;19;20131;-54
2021/12/24 02:42:27;;;;;;;1.98;1.75;;;10.30;60.50;;;;;;7379024;19;20602;-54
2021/12/24 02:45:01;;;;;;;2.78;1.77;;;10.30;60.40;;;;;;7373638;19;20135;-54
2021/12/24 02:47:55;;;;;;;3.08;2.22;;;10.40;60.60;;;;;;7379711;19;20119;-54
2021/12/24 02:55:53;;;;;;;3.25;2.00;;;10.20;60.80;;;;;;7369946;19;20681;-55
2021/12/24 02:58:23;;;;;;;2.30;1.83;;;10.20;60.70;;;;;;7372234;19;20143;-55
2021/12/24 03:00:55;;;;;;;3.20;2.50;;;10.20;60.80;;;;;;7380357;19;20175;-55
2021/12/24 03:03:25;;;;;;;2.47;2.03;;;10.10;60.80;;;;;;7381471;19;20142;-55
2021/12/24 03:05:54;;;;;;;6.38;2.63;;;10.10;60.70;;;;;;7377780;19;20630;-55
2021/12/24 03:08:26;;;;;;;2.80;2.25;;;10.10;60.80;;;;;;7375844;19;20166;-56
2021/12/24 03:10:58;;;;;;;2.70;2.47;;;10.10;60.80;;;;;;7369021;19;20183;-55
2021/12/24 03:13:29;;;;;;;3.08;2.20;;;10.10;60.80;;;;;;7381525;19;20147;-55
2021/12/24 03:16:00;;;;;;;2.20;1.90;;;10.10;60.90;;;;;;7380164;19;20135;-55
2021/12/24 03:18:33;;;;;;;4.10;2.80;;;10.10;60.90;;;;;;7373664;19;20610;-55
2021/12/24 03:21:07;;;;;;;3.13;2.10;;;10.10;60.80;;;;;;7374027;19;20680;-55
2021/12/24 03:23:42;;;;;;;3.08;2.10;;;10.10;60.90;;;;;;7380452;19;20132;-55
2021/12/24 03:26:15;;;;;;;4.32;2.35;;;10.00;61.00;;;;;;7373334;19;20131;-55
2021/12/24 03:28:45;;;;;;;2.58;2.38;;;10.00;61.20;;;;;;7383864;19;20203;-55
2021/12/24 03:31:15;;;;;;;3.72;2.53;;;10.00;61.20;;;;;;7374373;19;20166;-55
2021/12/24 03:33:45;;;;;;;2.85;2.17;;;10.00;61.20;;;;;;7379591;19;20165;-55
2021/12/24 03:36:15;;;;;;;2.17;1.80;;;10.10;61.20;;;;;;7380358;19;20119;-55
2021/12/24 03:38:48;;;;;;;2.60;2.05;;;10.00;61.10;;;;;;7375991;19;20135;-55
2021/12/24 03:41:18;;;;;;;3.47;2.40;;;10.00;61.20;;;;;;7371272;19;20264;-55
2021/12/24 03:43:47;;;;;;;3.08;2.00;;;10.00;61.10;;;;;;7382906;19;20131;-55
2021/12/24 03:46:18;;;;;;;2.65;2.20;;;10.00;61.10;;;;;;7377448;19;20139;-55
2021/12/24 03:48:52;;;;;;;2.00;1.77;;;10.00;61.30;;;;;;7383152;19;20142;-55
2021/12/24 03:51:35;;;;;;;2.40;2.20;;;10.00;61.70;;;;;;7375728;19;20130;-55
2021/12/24 03:56:54;;;;;;;2.22;1.95;;;10.00;61.80;;;;;;7380184;19;20219;-55
2021/12/24 03:59:43;;;;;;;2.53;2.33;;;10.00;61.70;;;;;;7378797;19;20866;-55
2021/12/24 04:02:33;;;;;;;5.32;3.72;;;10.10;61.80;;;;;;7370179;19;20151;-55
2021/12/24 04:05:26;;;;;;;2.55;2.20;;;10.10;61.80;;;;;;7375495;19;20734;-55
2021/12/24 04:08:14;;;;;;;3.70;1.75;;;10.10;61.90;;;;;;7381835;19;20606;-56
2021/12/24 04:11:07;;;;;;;7.57;2.58;;;10.10;61.90;;;;;;7372835;19;20195;-55
2021/12/24 04:13:43;;;;;;;4.07;2.20;;;10.00;62.10;;;;;;7370106;19;20131;-56
2021/12/24 04:16:12;;;;;;;2.47;2.25;;;10.00;62.10;;;;;;7372976;19;20136;-55
2021/12/24 04:19:18;;;;;;;6.50;2.40;;;9.90;63.60;;;;;;7379188;19;20156;-55
2021/12/24 04:27:14;;;;;;;3.72;2.10;;;9.70;64.60;;;;;;7372135;19;20128;-55
2021/12/24 04:29:44;;;;;;;5.63;2.83;;;9.70;64.70;;;;;;7379600;19;20501;-55
2021/12/24 04:32:18;;;;;;;4.30;1.80;;;9.70;64.70;;;;;;7382294;19;20136;-55
2021/12/24 04:35:31;;;;;;;2.55;2.35;;;9.70;64.80;;;;;;7380627;19;20169;-55
2021/12/24 04:51:51;;;;;;;3.10;2.03;;;9.80;64.80;;;;;;7380923;19;20142;-55
2021/12/24 05:05:27;;;;;;;3.47;2.53;;;10.10;63.50;;;;;;7378093;19;20126;-55
2021/12/24 05:08:17;;;;;;;4.40;2.47;;;10.20;63.40;;;;;;7377833;19;20457;-55
2021/12/24 05:10:46;;;;;;;2.88;2.33;;;10.40;63.10;;;;;;7370965;19;20891;-56
2021/12/24 05:13:19;;;;;;;2.15;1.95;;;10.40;62.80;;;;;;7378196;19;20127;-55
2021/12/24 05:16:20;;;;;;;3.42;2.72;;;10.60;62.50;;;;;;7376976;19;20622;-55
2021/12/24 05:22:33;;;;;;;2.97;2.67;;;10.60;62.20;;;;;;7374276;19;20156;-55
2021/12/24 05:25:09;;;;;;;5.72;2.50;;;10.60;61.70;;;;;;7376779;19;20131;-55
2021/12/24 05:27:39;;;;;;;2.45;2.15;;;10.50;61.70;;;;;;7378299;19;20256;-55
2021/12/24 05:30:09;;;;;;;2.65;2.20;;;10.50;61.70;;;;;;7369894;19;20127;-54
2021/12/24 05:32:42;;;;;;;2.90;2.55;;;10.50;61.70;;;;;;7375266;19;20135;-54
2021/12/24 05:35:11;;;;;;;4.50;2.77;;;10.40;61.90;;;;;;7371373;19;20505;-54
2021/12/24 05:37:41;;;;;;;4.25;2.70;;;10.40;62.00;;;;;;7377987;19;20372;-54
2021/12/24 05:40:12;;;;;;;3.60;2.40;;;10.40;62.30;;;;;;7370903;19;20124;-54
2021/12/24 05:42:42;;;;;;;4.80;2.47;;;10.50;62.30;;;;;;7375602;19;20134;-53
2021/12/24 05:45:12;;;;;;;2.97;2.03;;;10.50;62.20;;;;;;7378683;19;20132;-54
2021/12/24 05:48:13;;;;;;;3.72;2.55;;;10.50;62.10;;;;;;7377847;19;20205;-54
2021/12/24 05:50:43;;;;;;;5.07;2.65;;;10.50;62.30;;;;;;7378766;19;20127;-54
2021/12/24 05:53:42;;;;;;;2.85;2.20;;;10.50;62.50;;;;;;7377682;19;20233;-54
2021/12/24 05:56:22;;;;;;;2.92;2.38;;;10.40;62.50;;;;;;7378065;19;20135;-54
2021/12/24 05:59:02;;;;;;;3.22;2.70;;;10.40;62.50;;;;;;7377113;19;20787;-54
2021/12/24 06:01:32;;;;;;;2.95;2.40;;;10.50;62.80;;;;;;7370173;19;20135;-55
2021/12/24 06:04:06;;;;;;;3.10;2.80;;;10.50;62.80;;;;;;7377220;19;20128;-55
2021/12/24 06:06:36;;;;;;;3.27;2.87;;;10.50;62.90;;;;;;7371707;19;20388;-55
2021/12/24 06:09:06;;;;;;;3.90;3.35;;;10.50;62.80;;;;;;7374647;19;20392;-55
2021/12/24 06:11:35;;;;;;;4.07;2.78;;;10.40;62.80;;;;;;7364203;19;20159;-55
2021/12/24 06:14:10;;;;;;;4.43;2.22;;;10.50;62.80;;;;;;7380350;19;20128;-55
2021/12/24 06:16:47;;;;;;;2.80;2.50;;;10.50;63.00;;;;;;7386533;19;20140;-55
2021/12/24 06:19:20;;;;;;;5.22;3.15;;;10.50;63.10;;;;;;7384644;19;20902;-55
2021/12/24 06:21:53;;;;;;;2.78;2.53;;;10.50;63.00;;;;;;7383420;19;20131;-55
2021/12/24 06:24:22;;;;;;;3.65;2.97;;;10.50;63.00;;;;;;7387552;19;20124;-55
2021/12/24 06:26:52;;;;;;;4.87;2.73;;;10.50;63.00;;;;;;7381494;19;20128;-55
2021/12/24 06:29:23;;;;;;;4.35;2.50;;;10.50;62.90;;;;;;7384914;19;20379;-55
2021/12/24 06:31:53;;;;;;;4.78;3.05;;;10.50;63.00;;;;;;7384654;19;20633;-55
2021/12/24 06:34:26;;;;;;;3.40;3.10;;;10.50;63.00;;;;;;7384282;19;20123;-55
2021/12/24 06:36:55;;;;;;;2.83;2.40;;;10.50;63.20;;;;;;7385973;19;20470;-55
2021/12/24 06:39:25;;;;;;;3.58;2.28;;;10.50;63.20;;;;;;7384475;19;20452;-55
2021/12/24 06:41:55;;;;;;;3.92;2.65;;;10.50;63.20;;;;;;7382002;19;20144;-55
2021/12/24 06:44:25;;;;;;;4.30;3.20;;;10.50;63.00;;;;;;7383204;19;20136;-55
2021/12/24 06:46:55;;;;;;;5.80;2.60;;;10.60;62.90;;;;;;7384685;19;20376;-55
2021/12/24 06:49:27;;;;;;;2.83;2.47;;;10.60;62.60;;;;;;7386897;19;20139;-55
2021/12/24 06:51:56;;;;;;;3.50;3.20;;;10.60;62.80;;;;;;7383613;19;20386;-55
2021/12/24 06:54:26;;;;;;;4.27;2.63;;;10.60;62.80;;;;;;7385391;19;20128;-55
2021/12/24 06:56:56;;;;;;;3.00;2.70;;;10.60;62.80;;;;;;7385902;19;20427;-55
2021/12/24 06:59:26;;;;;;;3.75;2.58;;;10.50;62.80;;;;;;7383685;19;20392;-55
2021/12/24 07:01:59;;;;;;;3.10;2.80;;;10.50;62.80;;;;;;7382372;19;20131;-55
2021/12/24 07:04:31;;;;;;;3.40;2.80;;;10.50;62.70;;;;;;7383755;19;20372;-55
2021/12/24 07:07:00;;;;;;;3.75;3.28;;;10.50;63.30;;;;;;7382376;19;20839;-55
2021/12/24 07:09:30;;;;;;;4.50;3.03;;;10.50;64.20;;;;;;7383401;19;20154;-55
2021/12/24 07:11:59;;;;;;;5.10;3.33;;;10.50;64.60;;;;;;7374728;19;20190;-55
2021/12/24 07:14:36;;;;;;;3.28;2.90;;;10.50;65.00;;;;;;7381426;19;20376;-55
2021/12/24 07:17:06;;;;;;;3.35;2.85;;;10.40;64.80;;;;;;7378838;19;20714;-55
2021/12/24 07:19:38;;;;;;;5.22;3.05;;;10.50;64.40;;;;;;7381222;19;20136;-55
2021/12/24 07:22:09;;;;;;;4.45;2.80;;;10.50;64.40;;;;;;7383238;19;20158;-55
2021/12/24 07:24:38;;;;;;;4.65;2.90;;;10.50;65.10;;;;;;7375584;19;20543;-55
2021/12/24 07:27:09;;;;;;;4.50;2.67;;;10.40;65.30;;;;;;7380010;19;26038;-55
2021/12/24 07:29:40;;;;;;;6.07;3.17;;;10.40;65.90;;;;;;7374789;19;20128;-55
2021/12/24 07:32:10;;;;;;;4.00;2.80;;;10.40;66.40;;;;;;7386377;19;20376;-55
2021/12/24 07:34:42;;;;;;;4.07;3.17;;;10.40;66.50;;;;;;7376994;19;20534;-55
2021/12/24 07:37:11;;;;;;;5.22;2.97;;;10.30;66.20;;;;;;7381690;19;20140;-55
2021/12/24 07:39:41;;;;;;;5.27;3.00;;;10.30;65.90;;;;;;7375419;19;20620;-54
2021/12/24 07:42:11;;;;;;;4.03;2.80;;;10.30;65.60;;;;;;7370309;19;20498;-54
2021/12/24 07:44:40;;;;;;;3.07;2.40;;;10.30;65.90;;;;;;7377418;19;20372;-54
2021/12/24 07:47:16;;;;;;;3.73;2.57;;;10.30;65.70;;;;;;7366415;19;20387;-54
2021/12/24 07:49:51;;;;;;;3.22;2.75;;;10.30;65.40;;;;;;7375838;19;20510;-54
2021/12/24 07:52:21;;;;;;;3.75;3.10;;;10.30;65.10;;;;;;7377391;19;20135;-54
2021/12/24 07:54:54;;;;;;;3.00;2.70;;;10.30;65.20;;;;;;7385098;19;20135;-53
2021/12/24 07:57:24;;;;;;;3.50;2.60;;;10.30;65.40;;;;;;7377161;19;20151;-52
2021/12/24 07:59:54;;;;;;;3.67;2.70;;;10.30;65.30;;;;;;7381950;19;20131;-53
2021/12/24 08:02:27;;;;;;;3.55;2.30;;;10.30;65.10;;;;;;7369802;19;20511;-52
2021/12/24 08:04:59;;;;;;;2.65;2.45;;;10.30;65.20;;;;;;7375156;19;20119;-53
2021/12/24 08:07:28;;;;;;;4.40;2.95;;;10.30;65.20;;;;;;7376750;19;20138;-54
2021/12/24 08:09:58;;;;;;;3.40;2.78;;;10.30;65.20;;;;;;7358965;19;20147;-57
2021/12/24 08:12:27;;;;;;;2.90;2.37;;;10.30;65.10;;;;;;7365122;19;20573;-57
2021/12/24 08:14:57;;;;;;;4.10;2.53;;;10.30;64.90;;;;;;7372480;19;20460;-57
2021/12/24 08:17:27;;;;;;;3.90;3.00;;;10.30;65.10;;;;;;7376295;19;20127;-57
2021/12/24 08:19:59;;;;;;;3.78;2.90;;;10.30;65.00;;;;;;7368032;19;20128;-57
2021/12/24 08:22:28;;;;;;;2.65;2.38;;;10.30;65.00;;;;;;7376401;19;20127;-58
2021/12/24 08:24:58;;;;;;;2.60;2.40;;;10.30;65.00;;;;;;7372400;19;20131;-58
2021/12/24 08:27:27;;;;;;;6.43;3.63;;;10.30;65.20;;;;;;7379416;19;21077;-58
2021/12/24 08:29:57;;;;;;;4.60;2.70;;;10.30;65.20;;;;;;7376853;19;20384;-58
2021/12/24 08:32:26;;;;;;;5.72;3.78;;;10.30;65.30;;;;;;7379653;19;20379;-58
2021/12/24 08:35:01;;;;;;;4.70;3.20;;;10.40;65.30;;;;;;7369497;19;20743;-58
2021/12/24 08:37:31;;;;;;;2.63;2.37;;;10.50;65.00;;;;;;7365640;19;20138;-58
2021/12/24 08:40:01;;;;;;;4.80;3.00;;;10.40;65.00;;;;;;7377828;19;20395;-58
2021/12/24 08:42:30;;;;;;;3.80;2.63;;;10.40;65.40;;;;;;7379656;19;20368;-58
2021/12/24 08:45:00;;;;;;;3.30;2.63;;;10.50;65.30;;;;;;7380828;19;20372;-58
2021/12/24 08:47:30;;;;;;;3.88;2.60;;;10.50;65.30;;;;;;7377848;19;20379;-58
2021/12/24 08:50:02;;;;;;;4.15;2.83;;;10.50;65.20;;;;;;7362771;19;20135;-58
2021/12/24 08:52:31;;;;;;;3.10;2.80;;;10.60;65.30;;;;;;7378414;19;20135;-58
2021/12/24 08:55:01;;;;;;;4.47;2.87;;;10.60;65.30;;;;;;7375074;19;20823;-58
2021/12/24 08:57:30;;;;;;;6.10;3.03;;;10.60;65.30;;;;;;7374836;19;20291;-61
2021/12/24 09:00:00;;;;;;;3.67;2.55;;;10.60;65.20;;;;;;7371092;19;20127;-58
2021/12/24 09:02:30;;;;;;;3.07;2.77;;;10.60;65.60;;;;;;7369899;19;20131;-59
2021/12/24 09:05:04;;;;;;;5.40;2.50;;;10.80;65.40;;;;;;7370144;19;20385;-59
2021/12/24 09:07:37;;;;;;;3.90;2.70;;;10.60;65.60;;;;;;7368571;19;20442;-58
2021/12/24 09:10:07;;;;;;;2.58;2.38;;;10.50;66.40;;;;;;7369578;19;20637;-59
2021/12/24 09:12:37;;;;;;;3.90;2.50;;;10.60;66.70;;;;;;7358406;19;20131;-59
2021/12/24 09:15:10;;;;;;;4.00;2.78;;;10.60;66.90;;;;;;7375025;19;20437;-59
2021/12/24 09:17:44;;;;;;;4.22;3.17;;;10.60;66.60;;;;;;7377533;19;20123;-59
2021/12/24 09:20:21;;;;;;;5.70;2.83;;;10.60;66.70;;;;;;7381142;19;20143;-59
2021/12/24 09:22:51;;;;;;;4.32;2.38;;;10.60;66.50;;;;;;7376134;19;20930;-59
2021/12/24 09:25:23;;;;;;;3.78;2.90;;;10.60;66.50;;;;;;7377086;19;20124;-59
2021/12/24 09:27:53;;;;;;;3.30;2.53;;;10.50;66.70;;;;;;7384598;19;20119;-59
2021/12/24 09:30:23;;;;;;;4.75;3.00;;;10.50;67.10;;;;;;7381102;19;20155;-59
2021/12/24 09:32:53;;;;;;;4.05;2.38;;;10.40;67.50;;;;;;7382300;19;20127;-59
2021/12/24 09:35:27;;;;;;;4.07;1.93;;;10.40;68.10;;;;;;7380966;19;20130;-58
2021/12/24 09:37:58;;;;;;;4.10;2.90;;;10.50;68.80;;;;;;7380317;19;20372;-59
2021/12/24 09:40:28;;;;;;;3.33;2.50;;;10.40;69.20;;;;;;7383539;19;20777;-59
2021/12/24 09:42:58;;;;;;;4.05;2.40;;;10.40;69.40;;;;;;7382705;19;20132;-59
2021/12/24 09:45:27;;;;;;;6.82;3.60;;;10.40;69.80;;;;;;7379345;19;20138;-59
2021/12/24 09:47:57;;;;;;;4.32;2.88;;;10.30;70.10;;;;;;7381695;19;20135;-59
2021/12/24 09:50:32;;;;;;;2.92;2.72;;;10.30;70.70;;;;;;7379581;19;20129;-59
2021/12/24 09:53:01;;;;;;;3.55;2.95;;;10.30;71.00;;;;;;7381615;19;20139;-59
2021/12/24 09:55:32;;;;;;;4.35;3.25;;;10.30;70.80;;;;;;7382374;19;20131;-59
2021/12/24 09:58:01;;;;;;;3.20;2.50;;;10.30;70.80;;;;;;7380337;19;20139;-59
2021/12/24 10:00:33;;;;;;;2.70;2.40;;;10.40;70.70;;;;;;7378854;19;20131;-59
2021/12/24 10:03:03;;;;;;;2.90;2.20;;;10.30;70.70;;;;;;7380837;19;20376;-59
2021/12/24 10:05:40;;;;;;;4.47;2.83;;;10.40;71.20;;;;;;7371114;19;20139;-59
2021/12/24 10:08:12;;;;;;;3.05;2.30;;;10.30;70.80;;;;;;7376059;19;20538;-59
2021/12/24 10:10:45;;;;;;;4.63;2.92;;;10.30;70.80;;;;;;7377121;19;20178;-59
2021/12/24 10:13:33;;;;;;;2.78;2.50;;;10.30;70.90;;;;;;7382023;19;20170;-59
2021/12/24 10:16:04;;;;;;;3.72;2.85;;;10.40;70.90;;;;;;7379548;19;20609;-59
2021/12/24 10:18:40;;;;;;;4.00;2.97;;;10.50;70.60;;;;;;7381741;19;20496;-59
2021/12/24 10:21:16;;;;;;;3.40;2.67;;;10.40;70.80;;;;;;7379452;19;20391;-56
2021/12/24 10:23:52;;;;;;;6.10;2.90;;;10.50;70.90;;;;;;7378884;19;20905;-56
2021/12/24 10:26:27;;;;;;;5.65;3.40;;;10.50;70.70;;;;;;7379921;19;20388;-57
2021/12/24 10:29:03;;;;;;;3.78;2.95;;;10.60;70.50;;;;;;7382181;19;20652;-56
2021/12/24 10:31:36;;;;;;;3.43;3.10;;;10.60;70.50;;;;;;7379446;19;20119;-56
2021/12/24 10:34:23;;;;;;;5.13;2.50;;;10.60;70.30;;;;;;7383176;19;20938;-57
2021/12/24 10:37:02;;;;;;;3.43;2.60;;;10.60;70.30;;;;;;7381206;19;20766;-56
2021/12/24 10:39:35;;;;;;;4.47;3.08;;;10.60;70.30;;;;;;7376877;19;20933;-56
2021/12/24 10:42:12;;;;;;;2.90;2.47;;;10.60;70.40;;;;;;7376475;19;20489;-57
2021/12/24 10:44:47;;;;;;;3.90;2.20;;;10.60;70.40;;;;;;7381341;19;20372;-57
2021/12/24 10:47:19;;;;;;;2.70;2.30;;;10.50;70.00;;;;;;7382802;19;20140;-56
2021/12/24 10:50:07;;;;;;;4.38;2.88;;;10.60;70.10;;;;;;7380885;19;20124;-56
2021/12/24 10:55:40;;;;;;;3.00;2.63;;;10.60;70.00;;;;;;7379383;19;20199;-56
2021/12/24 10:58:18;;;;;;;3.33;2.40;;;10.60;70.00;;;;;;7378852;19;20390;-56
2021/12/24 11:00:50;;;;;;;3.60;2.27;;;10.50;69.80;;;;;;7385924;19;20773;-56
2021/12/24 11:03:22;;;;;;;3.97;2.30;;;10.50;70.10;;;;;;7385109;19;20380;-56
2021/12/24 11:05:54;;;;;;;2.65;2.33;;;10.50;70.30;;;;;;7383091;19;20607;-56
2021/12/24 11:08:29;;;;;;;3.10;2.10;;;10.40;70.20;;;;;;7387951;19;20613;-56
2021/12/24 11:11:01;;;;;;;5.65;2.50;;;10.40;70.40;;;;;;7378603;19;20459;-56
2021/12/24 11:13:39;;;;;;;3.20;2.25;;;10.30;70.60;;;;;;7382897;19;20527;-56
2021/12/24 11:16:11;;;;;;;2.78;2.30;;;10.40;70.80;;;;;;7386396;19;20127;-56
2021/12/24 11:18:45;;;;;;;3.60;2.10;;;10.40;70.80;;;;;;7385679;19;20481;-56
2021/12/24 11:21:22;;;;;;;2.90;2.37;;;10.40;70.70;;;;;;7387082;19;20127;-56
2021/12/24 11:23:55;;;;;;;2.10;1.90;;;10.40;70.80;;;;;;7385518;19;20395;-57
2021/12/24 11:26:27;;;;;;;2.30;1.90;;;10.40;70.70;;;;;;7388201;19;20127;-56
2021/12/24 11:28:58;;;;;;;4.05;2.00;;;10.40;70.60;;;;;;7385430;19;20391;-56
2021/12/24 11:31:30;;;;;;;2.15;1.42;;;10.50;70.70;;;;;;7381903;19;20158;-56
2021/12/24 11:34:00;;;;;;;1.55;1.40;;;10.50;70.30;;;;;;7380894;19;20227;-56
2021/12/24 11:36:33;;;;;;;1.92;1.55;;;10.50;70.30;;;;;;7388030;19;20131;-56
2021/12/24 11:39:08;;;;;;;2.17;1.70;;;10.60;70.30;;;;;;7385984;19;20134;-56
2021/12/24 11:41:38;;;;;;;3.13;2.13;;;10.60;70.20;;;;;;7389745;19;20135;-56
2021/12/24 11:44:08;;;;;;;2.45;1.58;;;10.60;70.10;;;;;;7385484;19;20124;-56
2021/12/24 11:46:41;;;;;;;2.83;1.35;;;10.60;70.30;;;;;;7386169;19;20598;-56
2021/12/24 11:49:11;;;;;;;1.50;1.40;;;10.50;70.40;;;;;;7385202;19;20684;-56
2021/12/24 11:51:42;;;;;;;1.50;1.40;;;10.50;70.60;;;;;;7386765;19;20127;-56
2021/12/24 11:54:16;;;;;;;1.70;1.40;;;10.50;70.50;;;;;;7383368;19;20132;-56
2021/12/24 11:56:47;;;;;;;1.65;1.52;;;10.50;71.00;;;;;;7387120;19;20375;-56
2021/12/24 11:59:18;;;;;;;1.73;1.52;;;10.50;71.60;;;;;;7383656;19;20787;-56
2021/12/24 12:01:47;;;;;;;2.30;1.63;;;10.50;70.80;;;;;;7383785;19;20142;-56
2021/12/24 12:04:19;;;;;;;2.20;1.30;;;10.60;70.80;;;;;;7381917;19;20422;-56
2021/12/24 12:06:50;;;;;;;1.53;1.40;;;10.70;70.60;;;;;;7384973;19;20933;-56
2021/12/24 12:09:23;;;;;;;1.80;1.55;;;10.80;70.40;;;;;;7381612;19;20414;-56
2021/12/24 12:12:02;;;;;;;1.30;1.20;;;10.80;69.90;;;;;;7377524;19;20160;-56
2021/12/24 12:14:33;;;;;;;1.20;1.10;;;10.90;69.90;;;;;;7382181;19;20420;-56
2021/12/24 12:17:06;;;;;;;1.73;1.47;;;11.00;69.10;;;;;;7382615;19;20380;-56
2021/12/24 12:19:45;;;;;;;1.07;0.93;;;11.10;69.20;;;;;;7384303;19;20372;-59
2021/12/24 12:22:24;;;;;;;1.90;1.37;;;10.90;68.80;;;;;;7384688;19;20867;-59
2021/12/24 12:25:02;;;;;;;1.10;0.90;;;11.10;69.00;;;;;;7385603;19;20937;-59
2021/12/24 12:27:37;;;;;;;1.13;0.93;;;11.10;68.70;;;;;;7385686;19;20412;-59
2021/12/24 12:30:42;;;;;;;1.03;0.93;;;11.10;68.70;;;;;;7386098;19;20372;-59
2021/12/24 12:33:15;;;;;;;2.33;1.53;;;11.10;68.50;;;;;;7383734;19;20889;-59
2021/12/24 12:35:48;;;;;;;1.17;0.90;;;11.10;68.70;;;;;;7388460;19;20427;-59
2021/12/24 12:38:30;;;;;;;1.77;1.00;;;11.10;68.50;;;;;;7386379;19;20425;-59
2021/12/24 12:41:34;;;;;;;0.97;0.97;;;11.10;68.10;;;;;;7381939;19;20423;-59
2021/12/24 12:44:06;;;;;;;0.73;0.63;;;11.20;68.40;;;;;;7381346;19;20690;-59
2021/12/24 12:46:39;;;;;;;1.63;1.10;;;11.20;68.00;;;;;;7385608;19;20380;-59
2021/12/24 12:49:11;;;;;;;1.73;0.90;;;11.30;67.60;;;;;;7384701;19;20376;-59
2021/12/24 12:51:53;;;;;;;0.90;0.77;;;11.30;67.70;;;;;;7384109;19;20368;-59
2021/12/24 12:54:47;;;;;;;0.80;0.80;;;11.30;68.20;;;;;;7355714;19;20384;-59
2021/12/24 12:57:32;;;;;;;1.10;0.80;;;11.20;68.40;;;;;;7379046;19;20447;-54
2021/12/24 13:00:18;;;;;;;1.03;0.80;;;11.30;68.50;;;;;;7372412;19;20376;-56
2021/12/24 13:03:09;;;;;;;1.20;1.00;;;11.30;68.40;;;;;;7372249;19;20590;-59
2021/12/24 13:06:01;;;;;;;0.87;0.87;;;11.30;68.10;;;;;;7366149;19;20356;-59
2021/12/24 13:08:34;;;;;;;1.60;0.87;;;11.30;68.20;;;;;;7374457;19;20457;-58
2021/12/24 13:11:06;;;;;;;8.53;2.13;;;11.20;68.00;;;;;;7367138;19;21112;-56
2021/12/24 13:13:55;;;;;;;0.90;0.80;;;11.20;68.20;;;;;;7375286;19;20366;-56
2021/12/24 13:16:30;;;;;;;1.07;0.90;;;11.20;68.00;;;;;;7346887;19;20510;-56
2021/12/24 13:19:21;;;;;;;1.23;0.85;;;11.20;68.20;;;;;;7377574;19;20991;-54
2021/12/24 13:24:40;;;;;;;1.00;0.80;;;11.10;68.00;;;;;;7364692;19;20360;-56
2021/12/24 13:27:10;;;;;;;1.00;0.90;;;11.10;68.20;;;;;;7358799;19;20466;-55
2021/12/24 13:29:42;;;;;;;1.03;0.90;;;11.00;68.40;;;;;;7358332;19;20385;-55
2021/12/24 13:32:12;;;;;;;1.00;0.70;;;11.10;68.80;;;;;;7371563;19;20395;-56
2021/12/24 13:34:42;;;;;;;4.20;1.30;;;11.00;68.70;;;;;;7373689;19;20743;-56
2021/12/24 13:37:17;;;;;;;1.20;0.70;;;11.00;69.10;;;;;;7372777;19;20372;-56
2021/12/24 13:39:52;;;;;;;1.30;1.05;;;11.00;69.20;;;;;;7360108;19;20352;-55
2021/12/24 13:42:22;;;;;;;1.10;1.00;;;11.10;69.30;;;;;;7375752;19;20169;-55
2021/12/24 13:45:02;;;;;;;2.20;1.30;;;11.00;69.10;;;;;;7370959;19;20387;-54
2021/12/24 13:47:50;;;;;;;1.70;1.33;;;11.00;69.30;;;;;;7375267;19;20372;-55
2021/12/24 13:55:54;;;;;;;1.33;1.00;;;10.90;69.70;;;;;;7377374;19;20759;-55
2021/12/24 13:58:24;;;;;;;1.50;1.40;;;10.90;69.90;;;;;;7375045;19;20376;-56
2021/12/24 14:00:59;;;;;;;0.90;0.90;;;10.90;70.00;;;;;;7379563;19;20728;-55
2021/12/24 14:03:31;;;;;;;1.65;1.27;;;10.90;70.00;;;;;;7376432;19;20364;-55
2021/12/24 14:06:03;;;;;;;1.30;1.20;;;10.90;70.20;;;;;;7377500;19;20140;-55
2021/12/24 14:08:36;;;;;;;1.40;1.30;;;11.00;70.40;;;;;;7378245;19;20439;-55
2021/12/24 14:11:12;;;;;;;0.90;0.70;;;10.90;70.30;;;;;;7366632;19;20447;-56
2021/12/24 14:13:47;;;;;;;1.27;1.13;;;10.90;70.20;;;;;;7369380;19;20926;-56
2021/12/24 14:16:36;;;;;;;1.17;1.07;;;11.00;69.90;;;;;;7371365;19;20454;-57
2021/12/24 14:19:13;;;;;;;1.75;1.20;;;11.00;69.80;;;;;;7380106;19;20991;-58
2021/12/24 14:21:49;;;;;;;1.50;1.27;;;11.10;69.30;;;;;;7375636;19;20132;-57
2021/12/24 14:24:27;;;;;;;1.70;1.17;;;11.40;69.50;;;;;;7371859;19;20384;-56
2021/12/24 14:27:00;;;;;;;1.43;0.80;;;11.10;69.20;;;;;;7374610;19;20731;-56
2021/12/24 14:29:44;;;;;;;1.60;1.13;;;11.10;69.20;;;;;;7374682;19;20887;-56
2021/12/24 14:32:19;;;;;;;1.20;1.10;;;11.00;69.20;;;;;;7370825;19;23171;-56
2021/12/24 14:34:50;;;;;;;1.77;1.17;;;11.00;69.20;;;;;;7384887;19;20426;-57
2021/12/24 14:37:28;;;;;;;1.03;0.93;;;11.00;69.30;;;;;;7373075;19;20913;-58
2021/12/24 14:40:02;;;;;;;0.93;0.80;;;11.00;69.60;;;;;;7378952;19;20386;-57
2021/12/24 14:42:39;;;;;;;0.87;0.73;;;11.00;69.40;;;;;;7365425;19;20371;-62
2021/12/24 15:11:12;;;;;;;1.35;0.95;;;10.30;72.80;;;;;;7389872;19;20940;-36
2021/12/24 15:13:44;;;;;;;1.35;1.25;;;10.30;73.80;;;;;;7399469;19;20138;-36
2021/12/24 15:16:16;;;;;;;0.90;0.90;;;10.40;73.60;;;;;;7390736;19;20385;-36